createdAt,value
2018-06-16T00:01:27.879Z,58.30
2018-06-16T00:03:57.222Z,58.74
2018-06-16T00:06:24.806Z,58.92
2018-06-16T00:08:52.368Z,59.04
2018-06-16T00:11:21.617Z,58.84
2018-06-16T00:13:49.474Z,58.93
2018-06-16T00:16:17.299Z,59.08
2018-06-16T00:18:45.600Z,59.40
2018-06-16T00:21:14.388Z,58.83
2018-06-16T00:23:42.838Z,59.29
2018-06-16T00:26:10.401Z,59.25
2018-06-16T00:28:38.023Z,59.15
2018-06-16T00:31:06.308Z,59.07
2018-06-16T00:33:33.862Z,59.29
2018-06-16T00:36:01.449Z,59.78
2018-06-16T00:38:29.949Z,59.82
2018-06-16T00:40:58.670Z,60.18
2018-06-16T00:43:27.626Z,60.23
2018-06-16T00:45:55.198Z,59.56
2018-06-16T00:48:23.034Z,60.25
2018-06-16T00:50:50.598Z,60.32
2018-06-16T00:53:18.152Z,60.43
2018-06-16T00:55:47.138Z,60.22
2018-06-16T00:58:14.735Z,60.38
2018-06-16T01:00:42.436Z,61.21
2018-06-16T01:03:10.010Z,60.17
2018-06-16T01:05:37.858Z,60.86
2018-06-16T01:08:05.410Z,60.50
2018-06-16T01:10:32.965Z,60.67
2018-06-16T01:13:00.566Z,61.11
2018-06-16T01:15:28.430Z,60.77
2018-06-16T01:17:56.021Z,60.83
2018-06-16T01:20:23.619Z,61.48
2018-06-16T01:22:51.202Z,61.45
2018-06-16T01:25:23.519Z,61.67
2018-06-16T01:27:51.081Z,61.80
2018-06-16T01:30:19.358Z,61.22
2018-06-16T01:32:46.948Z,61.78
2018-06-16T01:35:14.530Z,62.16
2018-06-16T01:37:42.098Z,62.17
2018-06-16T01:40:10.286Z,61.70
2018-06-16T01:42:38.126Z,62.18
2018-06-16T01:45:05.689Z,62.11
2018-06-16T01:47:33.266Z,62.38
2018-06-16T01:50:00.847Z,62.39
2018-06-16T01:52:28.699Z,62.63
2018-06-16T01:54:56.286Z,62.30
2018-06-16T01:57:25.071Z,62.42
2018-06-16T01:59:52.666Z,61.87
2018-06-16T02:02:20.530Z,62.63
2018-06-16T02:04:48.371Z,62.39
2018-06-16T02:07:15.931Z,61.62
2018-06-16T02:09:44.426Z,62.51
2018-06-16T02:12:12.930Z,62.48
2018-06-16T02:14:40.498Z,62.68
2018-06-16T02:17:08.367Z,62.49
2018-06-16T02:19:35.981Z,62.29
2018-06-16T02:22:03.564Z,62.82
2018-06-16T02:24:31.137Z,62.87
2018-06-16T02:26:59.033Z,62.94
2018-06-16T02:29:26.611Z,62.45
2018-06-16T02:31:54.186Z,63.13
2018-06-16T02:34:22.067Z,62.93
2018-06-16T02:36:49.644Z,62.47
2018-06-16T02:39:17.208Z,63.42
2018-06-16T02:41:44.789Z,63.24
2018-06-16T02:44:12.694Z,62.70
2018-06-16T02:46:40.271Z,63.76
2018-06-16T02:49:07.871Z,63.38
2018-06-16T02:51:35.476Z,63.54
2018-06-16T02:54:03.058Z,63.36
2018-06-16T02:56:30.871Z,63.52
2018-06-16T02:58:58.727Z,64.08
2018-06-16T03:01:28.408Z,63.34
2018-06-16T03:03:55.990Z,64.18
2018-06-16T03:06:23.598Z,64.39
2018-06-16T03:08:51.491Z,63.34
2018-06-16T03:11:20.118Z,63.62
2018-06-16T03:13:47.729Z,64.26
2018-06-16T03:16:16.490Z,64.29
2018-06-16T03:18:44.882Z,64.30
2018-06-16T03:21:12.618Z,64.89
2018-06-16T03:23:40.196Z,64.40
2018-06-16T03:26:08.054Z,64.89
2018-06-16T03:28:35.627Z,64.66
2018-06-16T03:31:03.204Z,64.42
2018-06-16T03:33:31.558Z,64.65
2018-06-16T03:35:59.954Z,64.77
2018-06-16T03:38:27.538Z,65.20
2018-06-16T03:40:55.681Z,65.33
2018-06-16T03:43:24.887Z,65.13
2018-06-16T03:45:52.455Z,64.55
2018-06-16T03:48:20.030Z,65.05
2018-06-16T03:50:47.598Z,65.12
2018-06-16T03:53:15.451Z,64.40
2018-06-16T03:55:43.818Z,65.08
2018-06-16T03:58:11.511Z,64.58
2018-06-16T04:00:39.229Z,64.86
2018-06-16T04:03:07.544Z,65.19
2018-06-16T04:05:36.438Z,64.65
2018-06-16T04:08:04.018Z,65.31
2018-06-16T04:10:31.584Z,64.88
2018-06-16T04:13:00.204Z,65.05
2018-06-16T04:15:27.816Z,64.95
2018-06-16T04:17:55.599Z,65.23
2018-06-16T04:20:23.442Z,65.60
2018-06-16T04:22:51.014Z,65.13
2018-06-16T04:25:18.604Z,65.77
2018-06-16T04:27:46.226Z,65.09
2018-06-16T04:30:14.086Z,64.96
2018-06-16T04:32:41.708Z,64.96
2018-06-16T04:35:09.287Z,65.83
2018-06-16T04:37:37.457Z,65.61
2018-06-16T04:40:05.310Z,65.59
2018-06-16T04:42:32.907Z,65.01
2018-06-16T04:45:00.499Z,65.51
2018-06-16T04:47:28.093Z,65.61
2018-06-16T04:49:55.955Z,65.53
2018-06-16T04:52:24.126Z,65.74
2018-06-16T04:54:52.054Z,65.70
2018-06-16T04:57:20.578Z,65.70
2018-06-16T04:59:49.460Z,65.04
2018-06-16T05:02:17.053Z,64.94
2018-06-16T05:04:44.625Z,65.39
2018-06-16T05:07:12.198Z,65.47
2018-06-16T05:09:40.062Z,65.11
2018-06-16T05:12:07.660Z,65.41
2018-06-16T05:14:35.235Z,65.61
2018-06-16T05:17:02.881Z,65.29
2018-06-16T05:19:31.728Z,65.39
2018-06-16T05:21:59.351Z,65.27
2018-06-16T05:24:26.940Z,65.12
2018-06-16T05:26:54.794Z,65.36
2018-06-16T05:29:22.378Z,64.88
2018-06-16T05:31:49.942Z,65.23
2018-06-16T05:34:17.524Z,65.47
2018-06-16T05:36:45.118Z,65.27
2018-06-16T05:39:12.727Z,64.93
2018-06-16T05:41:40.338Z,65.38
2018-06-16T05:44:08.195Z,64.77
2018-06-16T05:46:35.802Z,65.32
2018-06-16T05:49:03.427Z,65.22
2018-06-16T05:51:31.277Z,64.59
2018-06-16T05:53:58.898Z,65.16
2018-06-16T05:56:26.474Z,64.19
2018-06-16T05:58:54.309Z,65.06
2018-06-16T06:01:22.162Z,64.19
2018-06-16T06:03:49.737Z,63.60
2018-06-16T06:06:17.329Z,63.92
2018-06-16T06:08:46.784Z,64.47
2018-06-16T06:11:14.351Z,63.58
2018-06-16T06:13:41.937Z,63.87
2018-06-16T06:16:09.793Z,63.55
2018-06-16T06:18:37.356Z,63.46
2018-06-16T06:21:06.403Z,63.14
2018-06-16T06:23:35.258Z,63.49
2018-06-16T06:26:03.461Z,62.51
2018-06-16T06:28:31.026Z,62.62
2018-06-16T06:30:58.894Z,62.63
2018-06-16T06:33:26.459Z,62.25
2018-06-16T06:35:54.017Z,61.89
2018-06-16T06:38:21.898Z,62.02
2018-06-16T06:40:49.466Z,62.21
2018-06-16T06:43:17.018Z,61.84
2018-06-16T06:45:44.859Z,61.12
2018-06-16T06:48:12.422Z,61.64
2018-06-16T06:50:40.981Z,61.31
2018-06-16T06:53:09.800Z,61.32
2018-06-16T06:55:37.370Z,60.86
2018-06-16T06:58:04.966Z,60.20
2018-06-16T07:00:32.849Z,60.54
2018-06-16T07:03:00.472Z,60.20
2018-06-16T07:05:28.830Z,59.95
2018-06-16T07:07:56.681Z,59.31
2018-06-16T07:10:24.252Z,59.61
2018-06-16T07:12:51.828Z,59.14
2018-06-16T07:15:20.984Z,58.70
2018-06-16T07:17:48.545Z,58.74
2018-06-16T07:20:16.846Z,58.94
2018-06-16T07:22:44.689Z,58.62
2018-06-16T07:25:12.259Z,58.00
2018-06-16T07:27:40.684Z,59.09
2018-06-16T07:30:08.566Z,58.19
2018-06-16T07:32:37.459Z,58.68
2018-06-16T07:35:05.706Z,58.68
2018-06-16T07:37:33.543Z,58.13
2018-06-16T07:40:01.132Z,58.28
2018-06-16T07:42:28.744Z,58.90
2018-06-16T07:44:57.297Z,58.80
2018-06-16T07:47:24.874Z,58.25
2018-06-16T07:49:52.487Z,57.89
2018-06-16T07:52:20.363Z,57.47
2018-06-16T07:54:47.946Z,57.43
2018-06-16T07:57:15.500Z,56.84
2018-06-16T07:59:43.334Z,56.57
2018-06-16T08:02:11.578Z,56.24
2018-06-16T08:04:39.162Z,56.74
2018-06-16T08:07:07.007Z,55.41
2018-06-16T08:09:34.590Z,56.03
2018-06-16T08:12:02.174Z,55.82
2018-06-16T08:14:30.215Z,55.33
2018-06-16T08:16:58.447Z,55.19
2018-06-16T08:19:26.469Z,55.14
2018-06-16T08:21:56.256Z,54.60
2018-06-16T08:24:23.885Z,54.83
2018-06-16T08:26:51.551Z,54.18
2018-06-16T08:29:19.467Z,53.94
2018-06-16T08:31:47.754Z,53.68
2018-06-16T08:34:15.326Z,54.29
2018-06-16T08:36:44.135Z,54.13
2018-06-16T08:39:12.678Z,53.87
2018-06-16T08:41:40.283Z,53.04
2018-06-16T08:44:08.842Z,52.92
2018-06-16T08:46:36.488Z,53.36
2018-06-16T08:49:05.045Z,52.86
2018-06-16T08:51:34.131Z,52.46
2018-06-16T08:54:02.386Z,52.26
2018-06-16T08:56:30.179Z,53.03
2018-06-16T08:58:58.607Z,51.72
2018-06-16T09:01:26.426Z,51.79
2018-06-16T09:03:54.016Z,52.18
2018-06-16T09:06:21.652Z,52.11
2018-06-16T09:08:50.457Z,50.87
2018-06-16T09:11:19.358Z,50.71
2018-06-16T09:13:48.317Z,50.35
2018-06-16T09:16:15.934Z,50.12
2018-06-16T09:18:44.646Z,50.04
2018-06-16T09:21:12.227Z,49.88
2018-06-16T09:23:45.958Z,50.13
2018-06-16T09:26:13.865Z,50.09
2018-06-16T09:28:42.642Z,49.71
2018-06-16T09:31:10.208Z,49.68
2018-06-16T09:33:38.075Z,49.65
2018-06-16T09:36:08.653Z,49.51
2018-06-16T09:38:36.458Z,49.28
2018-06-16T09:41:04.616Z,48.79
2018-06-16T09:43:32.190Z,48.95
2018-06-16T09:46:00.826Z,48.94
2018-06-16T09:48:29.262Z,48.90
2018-06-16T09:50:56.840Z,47.92
2018-06-16T09:53:27.324Z,48.68
2018-06-16T09:55:55.218Z,48.34
2018-06-16T09:58:22.869Z,48.17
2018-06-16T10:00:50.428Z,48.39
2018-06-16T10:03:23.199Z,48.54
2018-06-16T10:05:52.262Z,48.14
2018-06-16T10:08:20.478Z,47.92
2018-06-16T10:10:48.357Z,47.21
2018-06-16T10:13:15.926Z,48.00
2018-06-16T10:15:44.477Z,46.91
2018-06-16T10:18:12.357Z,47.18
2018-06-16T10:20:39.950Z,46.81
2018-06-16T10:23:07.542Z,46.82
2018-06-16T10:25:35.388Z,46.83
2018-06-16T10:28:03.838Z,47.25
2018-06-16T10:30:31.419Z,46.73
2018-06-16T10:32:59.281Z,47.49
2018-06-16T10:35:27.079Z,47.13
2018-06-16T10:37:54.674Z,47.05
2018-06-16T10:40:26.122Z,46.96
2018-06-16T10:42:54.632Z,47.03
2018-06-16T10:45:22.422Z,46.89
2018-06-16T10:47:51.301Z,47.64
2018-06-16T10:50:20.342Z,47.09
2018-06-16T10:52:47.908Z,47.16
2018-06-16T10:55:15.759Z,47.27
2018-06-16T10:57:44.431Z,47.39
2018-06-16T11:00:12.018Z,47.41
2018-06-16T11:02:40.848Z,47.19
2018-06-16T11:05:09.651Z,47.14
2018-06-16T11:07:37.729Z,47.25
2018-06-16T11:10:05.627Z,46.93
2018-06-16T11:12:36.148Z,47.33
2018-06-16T11:15:04.515Z,47.29
2018-06-16T11:17:32.619Z,46.98
2018-06-16T11:20:00.186Z,46.65
2018-06-16T11:22:28.711Z,46.47
2018-06-16T11:24:56.611Z,46.18
2018-06-16T11:27:27.248Z,46.89
2018-06-16T11:29:58.460Z,46.63
2018-06-16T11:32:28.274Z,46.67
2018-06-16T11:34:59.535Z,46.25
2018-06-16T11:37:27.155Z,46.39
2018-06-16T11:39:55.337Z,46.34
2018-06-16T11:42:22.955Z,45.47
2018-06-16T11:44:51.210Z,46.01
2018-06-16T11:47:19.069Z,46.19
2018-06-16T11:49:47.727Z,45.96
2018-06-16T11:52:15.286Z,45.58
2018-06-16T11:54:44.595Z,45.66
2018-06-16T11:57:12.186Z,45.89
2018-06-16T11:59:40.602Z,45.77
2018-06-16T12:02:08.475Z,45.24
2018-06-16T12:04:36.070Z,45.72
2018-06-16T12:07:04.382Z,45.71
2018-06-16T12:09:33.042Z,45.53
2018-06-16T12:12:00.649Z,44.69
2018-06-16T12:14:28.231Z,44.80
2018-06-16T12:16:56.788Z,44.69
2018-06-16T12:19:25.396Z,44.90
2018-06-16T12:21:52.968Z,44.56
2018-06-16T12:24:20.813Z,44.55
2018-06-16T12:26:48.389Z,44.71
2018-06-16T12:29:16.005Z,45.06
2018-06-16T12:31:43.879Z,45.19
2018-06-16T12:34:12.259Z,45.07
2018-06-16T12:36:39.869Z,45.11
2018-06-16T12:39:08.394Z,44.95
2018-06-16T12:41:36.818Z,44.26
2018-06-16T12:44:05.279Z,44.45
2018-06-16T12:46:34.035Z,45.21
2018-06-16T12:49:01.619Z,44.79
2018-06-16T12:51:29.434Z,44.95
2018-06-16T12:53:57.564Z,44.17
2018-06-16T12:56:26.358Z,44.59
2018-06-16T12:58:54.962Z,44.74
2018-06-16T13:01:23.802Z,44.47
2018-06-16T13:03:51.614Z,43.98
2018-06-16T13:06:22.835Z,43.81
2018-06-16T13:08:51.286Z,43.73
2018-06-16T13:11:18.847Z,44.40
2018-06-16T13:13:46.416Z,43.35
2018-06-16T13:16:14.260Z,43.99
2018-06-16T13:18:41.821Z,43.45
2018-06-16T13:21:09.398Z,43.34
2018-06-16T13:23:37.243Z,43.32
2018-06-16T13:26:05.326Z,43.24
2018-06-16T13:28:33.703Z,42.86
2018-06-16T13:31:01.573Z,43.26
2018-06-16T13:33:30.838Z,42.46
2018-06-16T13:35:58.454Z,42.72
2018-06-16T13:38:26.531Z,42.33
2018-06-16T13:40:54.122Z,42.21
2018-06-16T13:43:22.379Z,42.64
2018-06-16T13:45:50.217Z,42.52
2018-06-16T13:48:17.790Z,41.88
2018-06-16T13:50:46.333Z,42.23
2018-06-16T13:53:14.209Z,42.13
2018-06-16T13:55:41.786Z,42.42
2018-06-16T13:58:09.349Z,41.78
2018-06-16T14:00:38.042Z,42.24
2018-06-16T14:03:05.619Z,41.60
2018-06-16T14:05:33.269Z,40.88
2018-06-16T14:08:01.448Z,41.38
2018-06-16T14:10:36.210Z,41.01
2018-06-16T14:13:06.645Z,41.33
2018-06-16T14:15:34.442Z,40.83
2018-06-16T14:18:02.392Z,40.84
2018-06-16T14:20:35.578Z,41.15
2018-06-16T14:23:05.319Z,41.46
2018-06-16T14:25:33.405Z,41.13
2018-06-16T14:28:01.286Z,41.15
2018-06-16T14:30:30.760Z,41.49
2018-06-16T14:32:59.281Z,41.76
2018-06-16T14:35:27.196Z,41.87
2018-06-16T14:37:54.789Z,42.31
2018-06-16T14:40:22.372Z,41.62
2018-06-16T14:42:50.500Z,41.84
2018-06-16T14:45:18.899Z,42.47
2018-06-16T14:47:46.480Z,42.44
2018-06-16T14:50:17.270Z,42.82
2018-06-16T14:52:44.919Z,42.57
2018-06-16T14:55:12.516Z,43.57
2018-06-16T14:57:41.345Z,43.52
2018-06-16T15:00:08.923Z,43.14
2018-06-16T15:02:36.524Z,43.55
2018-06-16T15:05:05.754Z,43.80
2018-06-16T15:07:33.298Z,43.87
2018-06-16T15:10:01.961Z,43.92
2018-06-16T15:12:31.234Z,44.77
2018-06-16T15:14:58.806Z,44.85
2018-06-16T15:17:26.366Z,44.26
2018-06-16T15:19:54.458Z,45.07
2018-06-16T15:22:23.671Z,44.23
2018-06-16T15:24:52.071Z,44.52
2018-06-16T15:27:19.909Z,44.45
2018-06-16T15:29:47.463Z,45.44
2018-06-16T15:32:15.056Z,44.86
2018-06-16T15:34:42.907Z,45.36
2018-06-16T15:37:10.482Z,45.54
2018-06-16T15:39:39.016Z,45.45
2018-06-16T15:42:07.688Z,45.29
2018-06-16T15:44:37.318Z,45.04
2018-06-16T15:47:07.823Z,44.62
2018-06-16T15:49:36.485Z,45.08
2018-06-16T15:52:05.343Z,44.30
2018-06-16T15:54:33.858Z,44.41
2018-06-16T15:57:01.721Z,44.60
2018-06-16T15:59:31.377Z,44.38
2018-06-16T16:02:02.040Z,44.72
2018-06-16T16:04:29.899Z,44.40
2018-06-16T16:06:57.446Z,43.94
2018-06-16T16:09:25.754Z,44.22
2018-06-16T16:11:53.666Z,44.34
2018-06-16T16:14:22.250Z,44.09
2018-06-16T16:16:49.835Z,44.62
2018-06-16T16:19:17.702Z,44.59
2018-06-16T16:21:47.017Z,43.96
2018-06-16T16:24:14.574Z,44.49
2018-06-16T16:26:42.438Z,44.58
2018-06-16T16:29:10.121Z,45.01
2018-06-16T16:31:38.906Z,44.93
2018-06-16T16:34:08.020Z,45.04
2018-06-16T16:36:36.394Z,44.36
2018-06-16T16:39:05.499Z,45.01
2018-06-16T16:44:07.629Z,45.23
2018-06-16T16:46:35.260Z,45.23
2018-06-16T16:49:03.195Z,44.37
2018-06-16T16:51:30.827Z,45.01
2018-06-16T16:53:59.413Z,44.83
2018-06-16T16:56:28.247Z,45.17
2018-06-16T16:58:55.826Z,44.60
2018-06-16T17:01:25.015Z,44.95
2018-06-16T17:03:54.435Z,45.32
2018-06-16T17:06:22.188Z,44.35
2018-06-16T17:08:49.850Z,45.20
2018-06-16T17:11:18.240Z,45.10
2018-06-16T17:13:46.527Z,45.00
2018-06-16T17:16:16.586Z,45.37
2018-06-16T17:18:44.498Z,44.78
2018-06-16T17:21:16.016Z,45.61
2018-06-16T17:23:43.600Z,45.41
2018-06-16T17:26:11.617Z,45.02
2018-06-16T17:28:39.238Z,45.18
2018-06-16T17:31:06.878Z,45.77
2018-06-16T17:33:35.185Z,45.87
2018-06-16T17:36:02.796Z,45.51
2018-06-16T17:38:30.400Z,45.92
2018-06-16T17:40:58.259Z,46.00
2018-06-16T17:43:25.866Z,46.05
2018-06-16T17:45:53.568Z,46.09
2018-06-16T17:48:21.661Z,46.44
2018-06-16T17:50:50.891Z,46.53
2018-06-16T17:53:18.515Z,46.65
2018-06-16T17:55:46.399Z,47.61
2018-06-16T17:58:14.668Z,47.76
2018-06-16T18:00:43.344Z,48.53
2018-06-16T18:03:12.104Z,48.72
2018-06-16T18:05:40.298Z,49.98
2018-06-16T18:08:07.870Z,50.90
2018-06-16T18:10:35.761Z,51.45
2018-06-16T18:13:04.091Z,51.26
2018-06-16T18:15:32.328Z,52.19
2018-06-16T18:18:01.242Z,52.92
2018-06-16T18:20:29.386Z,53.07
2018-06-16T18:22:56.963Z,53.65
2018-06-16T18:25:25.905Z,54.05
2018-06-16T18:27:53.547Z,54.14
2018-06-16T18:30:22.527Z,54.59
2018-06-16T18:32:53.124Z,55.78
2018-06-16T18:35:20.703Z,56.11
2018-06-16T18:37:48.291Z,56.15
2018-06-16T18:40:16.191Z,56.72
2018-06-16T18:42:44.490Z,56.83
2018-06-16T18:45:12.780Z,56.74
2018-06-16T18:47:40.654Z,57.08
2018-06-16T18:50:08.246Z,56.89
2018-06-16T18:52:36.650Z,57.62
2018-06-16T18:55:05.490Z,57.84
2018-06-16T18:57:34.469Z,57.26
2018-06-16T19:00:02.091Z,57.64
2018-06-16T19:02:31.431Z,58.34
2018-06-16T19:04:59.305Z,57.94
2018-06-16T19:07:26.928Z,58.32
2018-06-16T19:09:54.856Z,58.39
2018-06-16T19:12:22.677Z,58.89
2018-06-16T19:14:50.446Z,58.58
2018-06-16T19:17:18.838Z,58.90
2018-06-16T19:19:47.101Z,59.29
2018-06-16T19:22:15.398Z,58.75
2018-06-16T19:24:44.201Z,59.46
2018-06-16T19:27:12.389Z,59.14
2018-06-16T19:29:41.280Z,59.48
2018-06-16T19:32:09.438Z,59.49
2018-06-16T19:34:37.714Z,59.29
2018-06-16T19:37:06.955Z,59.53
2018-06-16T19:39:34.551Z,60.28
2018-06-16T19:42:06.239Z,60.26
2018-06-16T19:44:35.428Z,59.77
2018-06-16T19:47:03.270Z,59.99
2018-06-16T19:49:30.904Z,60.38
2018-06-16T19:51:58.760Z,60.94
2018-06-16T19:54:28.264Z,60.71
2018-06-16T20:02:43.224Z,60.70
2018-06-16T20:05:11.628Z,62.35
2018-06-16T20:07:39.219Z,62.11
2018-06-16T20:10:08.425Z,62.01
2018-06-16T20:12:37.278Z,62.48
2018-06-16T20:15:05.382Z,63.01
2018-06-16T20:17:33.226Z,62.60
2018-06-16T20:20:01.401Z,63.69
2018-06-16T20:22:31.462Z,63.73
2018-06-16T20:25:00.348Z,63.35
2018-06-16T20:27:29.325Z,63.46
2018-06-16T20:29:59.110Z,64.41
2018-06-16T20:32:28.432Z,64.29
2018-06-16T20:34:59.222Z,64.66
2018-06-16T20:37:27.096Z,64.09
2018-06-16T20:39:55.290Z,64.95
2018-06-16T20:42:24.088Z,64.80
2018-06-16T20:44:52.843Z,64.95
2018-06-16T20:47:21.210Z,64.86
2018-06-16T20:49:48.786Z,64.56
2018-06-16T20:52:17.293Z,64.96
2018-06-16T20:54:45.692Z,64.87
2018-06-16T20:57:14.762Z,65.33
2018-06-16T20:59:47.060Z,65.51
2018-06-16T21:02:15.827Z,64.84
2018-06-16T21:04:43.398Z,65.10
2018-06-16T21:07:12.511Z,65.08
2018-06-16T21:09:44.734Z,65.03
2018-06-16T21:12:12.338Z,65.78
2018-06-16T21:14:40.242Z,65.42
2018-06-16T21:17:07.831Z,66.05
2018-06-16T21:19:35.494Z,65.53
2018-06-16T21:22:04.250Z,65.21
2018-06-16T21:24:31.870Z,65.98
2018-06-16T21:26:59.475Z,65.35
2018-06-16T21:29:27.342Z,65.87
2018-06-16T21:31:59.626Z,65.06
2018-06-16T21:34:27.709Z,65.36
2018-06-16T21:36:55.319Z,65.14
2018-06-16T21:39:22.903Z,65.14
2018-06-16T21:41:50.779Z,65.05
2018-06-16T21:44:18.367Z,65.73
2018-06-16T21:46:45.955Z,65.05
2018-06-16T21:49:16.078Z,65.61
2018-06-16T21:51:44.268Z,65.43
2018-06-16T21:54:12.889Z,65.75
2018-06-16T21:56:44.497Z,65.20
2018-06-16T21:59:18.207Z,65.98
2018-06-16T22:01:47.018Z,65.88
2018-06-16T22:04:16.178Z,65.48
2018-06-16T22:06:44.301Z,65.51
2018-06-16T22:09:12.235Z,65.34
2018-06-16T22:11:41.308Z,65.63
2018-06-16T22:14:09.726Z,66.17
2018-06-16T22:16:37.349Z,66.25
2018-06-16T22:19:06.197Z,65.77
2018-06-16T22:21:33.779Z,66.24
2018-06-16T22:24:01.874Z,66.08
2018-06-16T22:26:29.863Z,66.13
2018-06-16T22:28:58.262Z,65.58
2018-06-16T22:31:25.859Z,66.28
2018-06-16T22:33:54.710Z,65.80
2018-06-16T22:36:22.529Z,66.40
2018-06-16T22:38:51.252Z,66.62
2018-06-16T22:41:19.126Z,66.38
2018-06-16T22:43:47.273Z,66.72
2018-06-16T22:46:14.895Z,66.13
2018-06-16T22:48:44.506Z,66.59
2018-06-16T22:51:13.138Z,66.62
2018-06-16T22:53:41.368Z,66.45
2018-06-16T22:56:09.256Z,66.77
2018-06-16T22:58:36.862Z,66.72
2018-06-16T23:01:04.451Z,66.37
2018-06-16T23:03:32.967Z,66.88
2018-06-16T23:06:00.587Z,66.39
2018-06-16T23:08:28.178Z,67.07
2018-06-16T23:10:56.067Z,67.40
2018-06-16T23:13:23.678Z,66.82
2018-06-16T23:15:51.269Z,67.52
2018-06-16T23:18:20.149Z,67.00
2018-06-16T23:20:48.690Z,67.85
2018-06-16T23:26:10.220Z,67.08
2018-06-16T23:28:39.054Z,67.09
2018-06-16T23:31:06.650Z,67.07
2018-06-16T23:33:34.560Z,67.59
2018-06-16T23:36:04.086Z,67.71
2018-06-16T23:38:31.685Z,66.95
2018-06-16T23:41:00.491Z,67.25
2018-06-16T23:43:28.085Z,66.50
2018-06-16T23:45:55.954Z,66.53
2018-06-16T23:48:24.459Z,67.08
2018-06-16T23:50:52.257Z,66.33
2018-06-16T23:53:20.878Z,67.13
2018-06-16T23:55:51.292Z,66.50
2018-06-16T23:58:18.891Z,66.43
